EW9209 Weather Reports


time (UTC)temp
C
wind
direction
speed
KPH
gust
KPH
rain 1hr
cm
rain 24hr
cm
rain mn
cm
humidity
%
barometer
mb
20200229065815 10 0.0 0.0 0.00 0.00 0.00 70 1018.9
20200229064816 10 225 1.6 3.2 0.00 0.00 0.00 70 1019.0
20200229063815 11 225 1.6 3.2 0.00 0.00 0.00 70 1019.1
20200229062815 11 0.0 0.0 0.00 0.00 0.00 70 1018.9
20200229061815 11 0.0 0.0 0.00 0.00 0.00 68 1019.0
20200229060815 11 225 1.6 3.2 0.00 0.00 0.00 68 1019.2
20200229055815 11 0.0 0.0 0.00 0.00 0.00 67 1019.3
20200229054815 11 0.0 0.0 0.00 0.00 0.00 67 1019.3
20200229053815 11 0.0 0.0 0.00 0.00 0.00 66 1019.0
20200229052816 11 0.0 0.0 0.00 0.00 0.00 65 1018.8
20200229051815 12 0.0 0.0 0.00 0.00 0.00 64 1018.7
20200229050816 12 0.0 0.0 0.00 0.00 0.00 63 1019.5
20200229045818 12 225 1.6 3.2 0.00 0.00 0.00 62 1018.8
20200229044817 13 0.0 0.0 0.00 0.00 0.00 59 1018.8
20200229043817 15 225 1.6 3.2 0.00 0.00 0.00 55 1018.9
20200229042817 15 0.0 0.0 0.00 0.00 0.00 56 1019.1
20200229041817 16 0.0 0.0 0.00 0.00 0.00 54 1019.1
20200229040817 16 0.0 0.0 0.00 0.00 0.00 52 1019.2
20200229035817 16 0.0 0.0 0.00 0.00 0.00 52 1019.0
20200229034817 17 0.0 0.0 0.00 0.00 0.00 50 1019.0
20200229033817 17 0.0 1.6 0.00 0.00 0.00 49 1019.0
20200229032817 17 225 3.2 4.8 0.00 0.00 0.00 51 1018.8
20200229031817 18 225 3.2 4.8 0.00 0.00 0.00 48 1018.8
20200229030817 18 0.0 1.6 0.00 0.00 0.00 48 1018.7
20200229025817 18 225 1.6 1.6 0.00 0.00 0.00 47 1018.6
20200229024817 19 0.0 0.0 0.00 0.00 0.00 47 1018.5
20200229023817 19 0.0 1.6 0.00 0.00 0.00 45 1018.4
20200229022817 20 0.0 0.0 0.00 0.00 0.00 43 1018.4
20200229021817 21 225 3.2 4.8 0.00 0.00 0.00 41 1018.4
20200229020817 21 225 1.6 3.2 0.00 0.00 0.00 39 1018.2
20200229015817 22 225 1.6 3.2 0.00 0.00 0.00 37 1018.1
20200229014817 22 0.0 0.0 0.00 0.00 0.00 36 1018.3
20200229013817 23 225 1.6 3.2 0.00 0.00 0.00 35 1018.2
20200229012817 23 225 1.6 3.2 0.00 0.00 0.00 35 1018.2
20200229011817 23 225 1.6 3.2 0.00 0.00 0.00 35 1018.4
20200229010817 23 225 4.8 8.0 0.00 0.00 0.00 36 1018.2
20200229005818 24 202 4.8 6.4 0.00 0.00 0.00 35 1018.3
20200229004817 25 202 1.6 3.2 0.00 0.00 0.00 34 1018.3
20200229003817 25 202 3.2 6.4 0.00 0.00 0.00 32 1018.2
20200229002817 26 202 4.8 6.4 0.00 0.00 0.00 30 1018.2
20200229001817 27 225 3.2 6.4 0.00 0.00 0.00 27 1018.3
20200229000817 27 270 3.2 4.8 0.00 0.00 0.00 20 1018.5
20200228235817 27 270 3.2 4.8 0.00 0.00 0.00 19 1018.4
20200228234817 27 270 6.4 9.7 0.00 0.00 0.00 19 1018.4
20200228233817 28 292 6.4 11.3 0.00 0.00 0.00 18 1018.4
20200228232817 28 247 4.8 6.4 0.00 0.00 0.00 17 1018.4
20200228231817 28 270 3.2 4.8 0.00 0.00 0.00 17 1018.2
20200228230817 28 315 6.4 9.7 0.00 0.00 0.00 16 1018.3
20200228225817 28 270 6.4 6.4 0.00 0.00 0.00 15 1018.4
20200228224817 28 270 4.8 6.4 0.00 0.00 0.00 15 1018.1
20200228223817 28 247 3.2 6.4 0.00 0.00 0.00 16 1018.2
20200228222817 28 225 3.2 4.8 0.00 0.00 0.00 16 1018.4
20200228221816 28 247 3.2 4.8 0.00 0.00 0.00 16 1018.4
20200228220816 28 247 6.4 11.3 0.00 0.00 0.00 15 1018.4
20200228215822 28 270 4.8 9.7 0.00 0.00 0.00 15 1018.5
20200228214816 28 270 4.8 6.4 0.00 0.00 0.00 15 1018.4
20200228213816 28 292 9.7 12.9 0.00 0.00 0.00 15 1018.6
20200228212816 28 292 1.6 3.2 0.00 0.00 0.00 15 1018.4
20200228211816 28 270 3.2 6.4 0.00 0.00 0.00 14 1018.4
20200228210817 29 247 6.4 12.9 0.00 0.00 0.00 15 1018.3
20200228205816 29 0.0 1.6 0.00 0.00 0.00 17 1018.3
20200228204816 28 0.0 3.2 0.00 0.00 0.00 17 1018.1
20200228203816 28 247 4.8 6.4 0.00 0.00 0.00 17 1018.4
20200228200816 28 270 3.2 4.8 0.00 0.00 0.00 18 1018.7
20200228195816 28 270 3.2 3.2 0.00 0.00 0.00 18 1018.8
20200228194816 28 202 1.6 4.8 0.00 0.00 0.00 18 1019.0
20200228193816 27 0.0 0.0 0.00 0.00 0.00 19 1019.0
20200228192817 27 202 3.2 6.4 0.00 0.00 0.00 19 1019.3
20200228191816 27 157 4.8 8.0 0.00 0.00 0.00 19 1019.7
20200228190816 27 157 3.2 4.8 0.00 0.00 0.00 18 1019.6
20200228185816 27 157 4.8 6.4 0.00 0.00 0.00 19 1019.8
20200228184816 27 90 9.7 14.5 0.00 0.00 0.00 19 1019.7
20200228183816 26 157 8.0 9.7 0.00 0.00 0.00 19 1019.9
20200228182816 26 112 8.0 11.3 0.00 0.00 0.00 19 1019.8
20200228181817 26 135 8.0 12.9 0.00 0.00 0.00 19 1019.8
20200228180816 25 67 9.7 14.5 0.00 0.00 0.00 21 1019.8
20200228175816 25 112 8.0 11.3 0.00 0.00 0.00 22 1020.0
20200228174816 23 135 9.7 14.5 0.00 0.00 0.00 23 1020.1
20200228173816 23 135 11.3 14.5 0.00 0.00 0.00 24 1019.9
20200228172815 23 135 8.0 11.3 0.00 0.00 0.00 25 1020.0
20200228171815 22 135 8.0 11.3 0.00 0.00 0.00 28 1020.0
20200228170815 22 135 6.4 11.3 0.00 0.00 0.00 29 1020.0
20200228165816 21 112 4.8 6.4 0.00 0.00 0.00 30 1020.1
20200228164816 19 112 4.8 6.4 0.00 0.00 0.00 36 1020.1
20200228163815 18 67 3.2 6.4 0.00 0.00 0.00 39 1020.0
20200228162821 17 45 3.2 4.8 0.00 0.00 0.00 40 1020.3
20200228161816 17 45 3.2 3.2 0.00 0.00 0.00 41 1020.1
20200228160816 16 45 3.2 4.8 0.00 0.00 0.00 44 1019.9
20200228155820 15 45 3.2 4.8 0.00 0.00 0.00 44 1019.8
20200228154816 15 67 3.2 4.8 0.00 0.00 0.00 44 1019.6
20200228153815 15 67 3.2 6.4 0.00 0.00 0.00 46 1019.6
20200228152816 14 0.0 0.0 0.00 0.00 0.00 46 1019.5
20200228151816 13 0.0 0.0 0.00 0.00 0.00 45 1019.4
20200228150815 13 67 1.6 3.2 0.00 0.00 0.00 46 1019.0
20200228145815 13 67 3.2 3.2 0.00 0.00 0.00 47 1019.0
20200228144815 12 0.0 0.0 0.00 0.00 0.00 48 1019.0
20200228143815 12 0.0 1.6 0.00 0.00 0.00 46 1019.0
20200228142815 12 67 3.2 4.8 0.00 0.00 0.00 48 1018.8
20200228141815 11 67 4.8 6.4 0.00 0.00 0.00 53 1018.4
20200228140815 10 157 1.6 3.2 0.00 0.00 0.00 60 1018.5
20200228135815 9 0.0 0.0 0.00 0.00 0.00 62 1018.2
20200228134815 10 0.0 0.0 0.00 0.00 0.00 62 1018.2
20200228133815 10 0.0 0.0 0.00 0.00 0.00 59 1018.2
20200228132815 10 0.0 0.0 0.00 0.00 0.00 57 1018.3
20200228131818 10 0.0 0.0 0.00 0.00 0.00 60 1018.2
20200228130818 9 157 3.2 4.8 0.00 0.00 0.00 62 1018.1
20200228125818 10 0.0 0.0 0.00 0.00 0.00 64 1018.2
20200228124817 9 0.0 0.0 0.00 0.00 0.00 63 1018.2
20200228123817 9 0.0 0.0 0.00 0.00 0.00 64 1018.0
20200228122818 9 0.0 0.0 0.00 0.00 0.00 65 1017.9
20200228121817 9 157 1.6 3.2 0.00 0.00 0.00 67 1018.0
20200228120817 8 0.0 1.6 0.00 0.00 0.00 68 1018.1
20200228115817 8 0.0 0.0 0.00 0.00 0.00 68 1017.9
20200228114817 8 0.0 0.0 0.00 0.00 0.00 65 1017.9
20200228113817 9 0.0 0.0 0.00 0.00 0.00 67 1018.0
20200228112817 9 0.0 0.0 0.00 0.00 0.00 63 1017.9
20200228111817 9 0.0 0.0 0.00 0.00 0.00 65 1017.9
20200228110817 9 0.0 0.0 0.00 0.00 0.00 65 1017.9
20200228105817 9 0.0 0.0 0.00 0.00 0.00 63 1017.7
20200228104817 9 0.0 0.0 0.00 0.00 0.00 62 1017.6
20200228103817 10 0.0 0.0 0.00 0.00 0.00 62 1017.5
20200228102817 10 0.0 0.0 0.00 0.00 0.00 62 1017.3
20200228101817 10 0.0 0.0 0.00 0.00 0.00 61 1017.4
20200228100817 10 0.0 0.0 0.00 0.00 0.00 61 1017.6
20200228095817 10 0.0 0.0 0.00 0.00 0.00 59 1017.5
20200228094817 10 0.0 0.0 0.00 0.00 0.00 60 1017.4
20200228093817 10 0.0 0.0 0.00 0.00 0.00 61 1017.3
20200228092817 10 0.0 0.0 0.00 0.00 0.00 59 1017.4
20200228091817 10 0.0 0.0 0.00 0.00 0.00 58 1017.6
20200228090816 10 157 1.6 3.2 0.00 0.00 0.00 59 1017.7
20200228085816 10 0.0 0.0 0.00 0.00 0.00 59 1017.6
20200228084816 10 0.0 0.0 0.00 0.00 0.00 58 1017.7
20200228083817 10 0.0 0.0 0.00 0.00 0.00 58 1017.8
20200228080817 11 0.0 0.0 0.00 0.00 0.00 57 1018.2
20200228075816 11 0.0 0.0 0.00 0.00 0.00 57 1018.2
20200228074817 11 0.0 0.0 0.00 0.00 0.00 55 1018.3
20200228073816 11 0.0 0.0 0.00 0.00 0.00 53 1018.4
20200228072816 11 0.0 0.0 0.00 0.00 0.00 54 1018.3
20200228071817 11 112 1.6 3.2 0.00 0.00 0.00 54 1018.2
20200228070816 11 112 1.6 3.2 0.00 0.00 0.00 53 1018.2